sensor_id;sensor_type;location;lat;lon;timestamp;temperature;humidity
29341;DHT22;16337;59.536;13.468;2023-10-09T00:00:24;1.60;99.90
29341;DHT22;16337;59.536;13.468;2023-10-09T00:03:05;1.60;99.90
29341;DHT22;16337;59.536;13.468;2023-10-09T00:05:32;1.60;99.90
29341;DHT22;16337;59.536;13.468;2023-10-09T00:08:10;1.50;99.90
29341;DHT22;16337;59.536;13.468;2023-10-09T00:10:36;1.50;99.90
29341;DHT22;16337;59.536;13.468;2023-10-09T00:13:14;1.50;99.90
29341;DHT22;16337;59.536;13.468;2023-10-09T00:15:39;1.50;99.90
29341;DHT22;16337;59.536;13.468;2023-10-09T00:18:07;1.30;99.90
29341;DHT22;16337;59.536;13.468;2023-10-09T00:20:40;1.30;99.90
29341;DHT22;16337;59.536;13.468;2023-10-09T00:23:09;1.20;99.90
29341;DHT22;16337;59.536;13.468;2023-10-09T00:25:49;1.20;99.90
29341;DHT22;16337;59.536;13.468;2023-10-09T00:28:30;1.10;99.90
29341;DHT22;16337;59.536;13.468;2023-10-09T00:30:57;1.00;99.90
29341;DHT22;16337;59.536;13.468;2023-10-09T00:33:22;1.00;99.90
29341;DHT22;16337;59.536;13.468;2023-10-09T00:35:51;0.90;99.90
29341;DHT22;16337;59.536;13.468;2023-10-09T00:38:20;0.80;99.90
29341;DHT22;16337;59.536;13.468;2023-10-09T00:40:46;0.80;99.90
29341;DHT22;16337;59.536;13.468;2023-10-09T00:43:16;0.80;99.90
29341;DHT22;16337;59.536;13.468;2023-10-09T00:45:46;0.80;99.90
29341;DHT22;16337;59.536;13.468;2023-10-09T00:48:13;0.70;99.90
29341;DHT22;16337;59.536;13.468;2023-10-09T00:50:51;0.70;99.90
29341;DHT22;16337;59.536;13.468;2023-10-09T00:53:22;0.70;99.90
29341;DHT22;16337;59.536;13.468;2023-10-09T00:56:01;0.60;99.90
29341;DHT22;16337;59.536;13.468;2023-10-09T00:58:49;0.50;99.90
29341;DHT22;16337;59.536;13.468;2023-10-09T01:01:22;0.50;99.90
29341;DHT22;16337;59.536;13.468;2023-10-09T01:03:52;0.40;99.90
29341;DHT22;16337;59.536;13.468;2023-10-09T01:06:18;0.40;99.90
29341;DHT22;16337;59.536;13.468;2023-10-09T01:08:47;0.50;99.90
29341;DHT22;16337;59.536;13.468;2023-10-09T01:11:31;0.40;99.90
29341;DHT22;16337;59.536;13.468;2023-10-09T01:13:57;0.50;99.90
29341;DHT22;16337;59.536;13.468;2023-10-09T01:16:41;0.40;99.90
29341;DHT22;16337;59.536;13.468;2023-10-09T01:19:07;0.40;99.90
29341;DHT22;16337;59.536;13.468;2023-10-09T01:21:46;0.40;99.90
29341;DHT22;16337;59.536;13.468;2023-10-09T01:24:11;0.40;99.90
29341;DHT22;16337;59.536;13.468;2023-10-09T01:26:39;0.40;99.90
29341;DHT22;16337;59.536;13.468;2023-10-09T01:29:08;0.40;99.90
29341;DHT22;16337;59.536;13.468;2023-10-09T01:31:51;0.40;99.90
29341;DHT22;16337;59.536;13.468;2023-10-09T01:34:31;0.40;99.90
29341;DHT22;16337;59.536;13.468;2023-10-09T01:37:12;0.40;99.90
29341;DHT22;16337;59.536;13.468;2023-10-09T01:39:47;0.40;99.90
29341;DHT22;16337;59.536;13.468;2023-10-09T01:42:17;0.40;99.90
29341;DHT22;16337;59.536;13.468;2023-10-09T01:45:11;0.30;99.90
29341;DHT22;16337;59.536;13.468;2023-10-09T01:47:37;0.30;99.90
29341;DHT22;16337;59.536;13.468;2023-10-09T01:50:07;0.20;99.90
29341;DHT22;16337;59.536;13.468;2023-10-09T01:52:45;0.10;99.90
29341;DHT22;16337;59.536;13.468;2023-10-09T01:55:11;0.10;99.90
29341;DHT22;16337;59.536;13.468;2023-10-09T01:58:01;0.10;99.90
29341;DHT22;16337;59.536;13.468;2023-10-09T02:00:34;0.10;99.90
29341;DHT22;16337;59.536;13.468;2023-10-09T02:03:07;0.00;99.90
29341;DHT22;16337;59.536;13.468;2023-10-09T02:05:38;0.00;99.90
29341;DHT22;16337;59.536;13.468;2023-10-09T02:08:05;-0.10;99.90
29341;DHT22;16337;59.536;13.468;2023-10-09T02:10:31;-0.10;99.90
29341;DHT22;16337;59.536;13.468;2023-10-09T02:13:05;-0.10;99.90
29341;DHT22;16337;59.536;13.468;2023-10-09T02:15:43;-0.10;99.90
29341;DHT22;16337;59.536;13.468;2023-10-09T02:18:16;-0.10;99.90
29341;DHT22;16337;59.536;13.468;2023-10-09T02:20:53;-0.10;99.90
29341;DHT22;16337;59.536;13.468;2023-10-09T02:23:28;-0.10;99.90
29341;DHT22;16337;59.536;13.468;2023-10-09T02:26:13;-0.10;99.90
29341;DHT22;16337;59.536;13.468;2023-10-09T02:28:51;-0.10;99.90
29341;DHT22;16337;59.536;13.468;2023-10-09T02:31:35;-0.10;99.90
29341;DHT22;16337;59.536;13.468;2023-10-09T02:34:08;-0.10;99.90
29341;DHT22;16337;59.536;13.468;2023-10-09T02:36:38;0.00;99.90
29341;DHT22;16337;59.536;13.468;2023-10-09T02:39:08;0.00;99.90
29341;DHT22;16337;59.536;13.468;2023-10-09T02:41:56;-0.10;99.90
29341;DHT22;16337;59.536;13.468;2023-10-09T02:44:27;-0.10;99.90
29341;DHT22;16337;59.536;13.468;2023-10-09T02:47:00;-0.20;99.90
29341;DHT22;16337;59.536;13.468;2023-10-09T02:49:30;-0.20;99.90
29341;DHT22;16337;59.536;13.468;2023-10-09T02:51:56;-0.20;99.90
29341;DHT22;16337;59.536;13.468;2023-10-09T02:54:22;-0.20;99.90
29341;DHT22;16337;59.536;13.468;2023-10-09T02:56:48;-0.30;99.90
29341;DHT22;16337;59.536;13.468;2023-10-09T02:59:22;-0.30;99.90
29341;DHT22;16337;59.536;13.468;2023-10-09T03:01:49;-0.30;99.90
29341;DHT22;16337;59.536;13.468;2023-10-09T03:04:15;-0.40;99.90
29341;DHT22;16337;59.536;13.468;2023-10-09T03:06:41;-0.40;99.90
29341;DHT22;16337;59.536;13.468;2023-10-09T03:09:20;-0.50;99.90
29341;DHT22;16337;59.536;13.468;2023-10-09T03:11:56;-0.50;99.90
29341;DHT22;16337;59.536;13.468;2023-10-09T03:14:31;-0.50;99.90
29341;DHT22;16337;59.536;13.468;2023-10-09T03:16:57;-0.60;99.90
29341;DHT22;16337;59.536;13.468;2023-10-09T03:19:26;-0.60;99.90
29341;DHT22;16337;59.536;13.468;2023-10-09T03:21:54;-0.60;99.90
29341;DHT22;16337;59.536;13.468;2023-10-09T03:24:26;-0.60;99.90
29341;DHT22;16337;59.536;13.468;2023-10-09T03:26:56;-0.70;99.90
29341;DHT22;16337;59.536;13.468;2023-10-09T03:29:23;-0.70;99.90
29341;DHT22;16337;59.536;13.468;2023-10-09T03:31:49;-0.80;99.90
29341;DHT22;16337;59.536;13.468;2023-10-09T03:34:19;-0.70;99.90
29341;DHT22;16337;59.536;13.468;2023-10-09T03:36:47;-0.80;99.90
29341;DHT22;16337;59.536;13.468;2023-10-09T03:39:32;-0.80;99.90
29341;DHT22;16337;59.536;13.468;2023-10-09T03:42:07;-0.80;99.90
29341;DHT22;16337;59.536;13.468;2023-10-09T03:44:40;-0.80;99.90
29341;DHT22;16337;59.536;13.468;2023-10-09T03:47:09;-0.80;99.90
29341;DHT22;16337;59.536;13.468;2023-10-09T03:49:36;-0.80;99.90
29341;DHT22;16337;59.536;13.468;2023-10-09T03:52:04;-0.90;99.90
29341;DHT22;16337;59.536;13.468;2023-10-09T03:54:32;-0.90;99.90
29341;DHT22;16337;59.536;13.468;2023-10-09T03:57:01;-0.90;99.90
29341;DHT22;16337;59.536;13.468;2023-10-09T03:59:28;-0.90;99.90
29341;DHT22;16337;59.536;13.468;2023-10-09T04:01:57;-1.00;99.90
29341;DHT22;16337;59.536;13.468;2023-10-09T04:04:24;-1.00;99.90
29341;DHT22;16337;59.536;13.468;2023-10-09T04:06:50;-1.00;99.90
29341;DHT22;16337;59.536;13.468;2023-10-09T04:09:19;-1.00;99.90
29341;DHT22;16337;59.536;13.468;2023-10-09T04:11:48;-1.00;99.90
29341;DHT22;16337;59.536;13.468;2023-10-09T04:14:22;-1.10;99.90
29341;DHT22;16337;59.536;13.468;2023-10-09T04:17:02;-1.10;99.90
29341;DHT22;16337;59.536;13.468;2023-10-09T04:19:50;-1.10;99.90
29341;DHT22;16337;59.536;13.468;2023-10-09T04:22:35;-1.10;99.90
29341;DHT22;16337;59.536;13.468;2023-10-09T04:25:20;-1.10;99.90
29341;DHT22;16337;59.536;13.468;2023-10-09T04:27:58;-1.10;99.90
29341;DHT22;16337;59.536;13.468;2023-10-09T04:30:40;-1.20;99.90
29341;DHT22;16337;59.536;13.468;2023-10-09T04:33:11;-1.20;99.90
29341;DHT22;16337;59.536;13.468;2023-10-09T04:36:06;-1.10;99.90
29341;DHT22;16337;59.536;13.468;2023-10-09T04:38:48;-1.10;99.90
29341;DHT22;16337;59.536;13.468;2023-10-09T04:41:32;-1.10;99.90
29341;DHT22;16337;59.536;13.468;2023-10-09T04:43:59;-1.10;99.90
29341;DHT22;16337;59.536;13.468;2023-10-09T04:46:44;-1.10;99.90
29341;DHT22;16337;59.536;13.468;2023-10-09T04:49:13;-1.10;99.90
29341;DHT22;16337;59.536;13.468;2023-10-09T04:51:54;-1.10;99.90
29341;DHT22;16337;59.536;13.468;2023-10-09T04:54:43;-1.20;99.90
29341;DHT22;16337;59.536;13.468;2023-10-09T04:57:31;-1.20;99.90
29341;DHT22;16337;59.536;13.468;2023-10-09T05:00:05;-1.20;99.90
29341;DHT22;16337;59.536;13.468;2023-10-09T05:02:53;-1.20;99.90
29341;DHT22;16337;59.536;13.468;2023-10-09T05:05:27;-1.20;99.90
29341;DHT22;16337;59.536;13.468;2023-10-09T05:08:08;-1.20;99.90
29341;DHT22;16337;59.536;13.468;2023-10-09T05:10:57;-1.20;99.90
29341;DHT22;16337;59.536;13.468;2023-10-09T05:13:36;-1.20;99.90
29341;DHT22;16337;59.536;13.468;2023-10-09T05:16:13;-1.20;99.90
29341;DHT22;16337;59.536;13.468;2023-10-09T05:18:42;-1.20;99.90
29341;DHT22;16337;59.536;13.468;2023-10-09T05:21:10;-1.30;99.90
29341;DHT22;16337;59.536;13.468;2023-10-09T05:23:39;-1.30;99.90
29341;DHT22;16337;59.536;13.468;2023-10-09T05:26:34;-1.30;99.90
29341;DHT22;16337;59.536;13.468;2023-10-09T05:29:26;-1.30;99.90
29341;DHT22;16337;59.536;13.468;2023-10-09T05:31:54;-1.30;99.90
29341;DHT22;16337;59.536;13.468;2023-10-09T05:34:29;-1.40;99.90
29341;DHT22;16337;59.536;13.468;2023-10-09T05:37:13;-1.40;99.90
29341;DHT22;16337;59.536;13.468;2023-10-09T05:39:54;-1.40;99.90
29341;DHT22;16337;59.536;13.468;2023-10-09T05:42:35;-1.40;99.90
29341;DHT22;16337;59.536;13.468;2023-10-09T05:45:15;-1.40;99.90
29341;DHT22;16337;59.536;13.468;2023-10-09T05:47:47;-1.40;99.90
29341;DHT22;16337;59.536;13.468;2023-10-09T05:50:22;-1.40;99.90
29341;DHT22;16337;59.536;13.468;2023-10-09T05:52:52;-1.40;99.90
29341;DHT22;16337;59.536;13.468;2023-10-09T05:55:22;-1.40;99.90
29341;DHT22;16337;59.536;13.468;2023-10-09T05:58:07;-1.40;99.90
29341;DHT22;16337;59.536;13.468;2023-10-09T06:00:51;-1.30;99.90
29341;DHT22;16337;59.536;13.468;2023-10-09T06:03:35;-1.30;99.90
29341;DHT22;16337;59.536;13.468;2023-10-09T06:06:23;-1.20;99.90
29341;DHT22;16337;59.536;13.468;2023-10-09T06:09:07;-1.10;99.90
29341;DHT22;16337;59.536;13.468;2023-10-09T06:11:42;-1.00;99.90
29341;DHT22;16337;59.536;13.468;2023-10-09T06:14:18;-1.00;99.90
29341;DHT22;16337;59.536;13.468;2023-10-09T06:16:57;-0.90;99.90
29341;DHT22;16337;59.536;13.468;2023-10-09T06:19:24;-0.90;99.90
29341;DHT22;16337;59.536;13.468;2023-10-09T06:21:57;-0.80;99.90
29341;DHT22;16337;59.536;13.468;2023-10-09T06:24:30;-0.80;99.90
29341;DHT22;16337;59.536;13.468;2023-10-09T06:27:12;-0.70;99.90
29341;DHT22;16337;59.536;13.468;2023-10-09T06:29:42;-0.60;99.90
29341;DHT22;16337;59.536;13.468;2023-10-09T06:32:11;-0.50;99.90
29341;DHT22;16337;59.536;13.468;2023-10-09T06:34:50;-0.50;99.90
29341;DHT22;16337;59.536;13.468;2023-10-09T06:37:25;-0.40;99.90
29341;DHT22;16337;59.536;13.468;2023-10-09T06:39:51;-0.30;99.90
29341;DHT22;16337;59.536;13.468;2023-10-09T06:42:17;-0.20;99.90
29341;DHT22;16337;59.536;13.468;2023-10-09T06:45:21;-0.10;99.90
29341;DHT22;16337;59.536;13.468;2023-10-09T06:47:49;0.00;99.90
29341;DHT22;16337;59.536;13.468;2023-10-09T06:50:22;0.10;99.90
29341;DHT22;16337;59.536;13.468;2023-10-09T06:52:51;0.10;99.90
29341;DHT22;16337;59.536;13.468;2023-10-09T06:55:43;0.20;99.90
29341;DHT22;16337;59.536;13.468;2023-10-09T06:58:17;0.20;99.90
29341;DHT22;16337;59.536;13.468;2023-10-09T07:00:54;0.30;99.90
29341;DHT22;16337;59.536;13.468;2023-10-09T07:03:20;0.40;99.90
29341;DHT22;16337;59.536;13.468;2023-10-09T07:06:15;0.50;99.90
29341;DHT22;16337;59.536;13.468;2023-10-09T07:08:51;0.70;99.90
29341;DHT22;16337;59.536;13.468;2023-10-09T07:11:35;0.90;99.90
29341;DHT22;16337;59.536;13.468;2023-10-09T07:14:12;1.10;99.90
29341;DHT22;16337;59.536;13.468;2023-10-09T07:17:01;1.20;99.90
29341;DHT22;16337;59.536;13.468;2023-10-09T07:19:42;1.30;99.90
29341;DHT22;16337;59.536;13.468;2023-10-09T07:22:17;1.40;99.90
29341;DHT22;16337;59.536;13.468;2023-10-09T07:24:46;1.60;99.90
29341;DHT22;16337;59.536;13.468;2023-10-09T07:27:23;1.70;99.90
29341;DHT22;16337;59.536;13.468;2023-10-09T07:30:08;1.80;99.90
29341;DHT22;16337;59.536;13.468;2023-10-09T07:33:06;2.00;99.90
29341;DHT22;16337;59.536;13.468;2023-10-09T07:35:36;2.10;99.90
29341;DHT22;16337;59.536;13.468;2023-10-09T07:38:08;2.10;99.90
29341;DHT22;16337;59.536;13.468;2023-10-09T07:40:43;2.20;99.90
29341;DHT22;16337;59.536;13.468;2023-10-09T07:43:35;2.20;99.90
29341;DHT22;16337;59.536;13.468;2023-10-09T07:46:08;2.40;99.90
29341;DHT22;16337;59.536;13.468;2023-10-09T07:48:54;2.60;99.90
29341;DHT22;16337;59.536;13.468;2023-10-09T07:51:21;2.90;99.90
29341;DHT22;16337;59.536;13.468;2023-10-09T07:53:50;3.20;99.90
29341;DHT22;16337;59.536;13.468;2023-10-09T07:56:25;3.40;99.90
29341;DHT22;16337;59.536;13.468;2023-10-09T07:58:56;3.60;99.90
29341;DHT22;16337;59.536;13.468;2023-10-09T08:01:26;3.80;99.90
29341;DHT22;16337;59.536;13.468;2023-10-09T08:03:56;3.90;99.90
29341;DHT22;16337;59.536;13.468;2023-10-09T08:06:26;4.20;99.90
29341;DHT22;16337;59.536;13.468;2023-10-09T08:09:06;4.40;99.90
29341;DHT22;16337;59.536;13.468;2023-10-09T08:11:38;4.60;99.90
29341;DHT22;16337;59.536;13.468;2023-10-09T08:14:14;4.80;99.90
29341;DHT22;16337;59.536;13.468;2023-10-09T08:16:59;5.00;99.90
29341;DHT22;16337;59.536;13.468;2023-10-09T08:19:40;5.20;99.90
29341;DHT22;16337;59.536;13.468;2023-10-09T08:22:37;5.40;99.90
29341;DHT22;16337;59.536;13.468;2023-10-09T08:25:10;5.50;99.90
29341;DHT22;16337;59.536;13.468;2023-10-09T08:28:02;5.70;99.90
29341;DHT22;16337;59.536;13.468;2023-10-09T08:30:40;5.80;99.90
29341;DHT22;16337;59.536;13.468;2023-10-09T08:33:18;5.80;99.90
29341;DHT22;16337;59.536;13.468;2023-10-09T08:35:54;5.60;99.90
29341;DHT22;16337;59.536;13.468;2023-10-09T08:38:33;5.50;99.90
29341;DHT22;16337;59.536;13.468;2023-10-09T08:41:12;5.30;99.90
29341;DHT22;16337;59.536;13.468;2023-10-09T08:43:49;5.40;99.90
29341;DHT22;16337;59.536;13.468;2023-10-09T08:46:24;5.70;99.90
29341;DHT22;16337;59.536;13.468;2023-10-09T08:48:56;6.00;99.90
29341;DHT22;16337;59.536;13.468;2023-10-09T08:51:27;6.40;99.90
29341;DHT22;16337;59.536;13.468;2023-10-09T08:53:53;6.70;99.90
29341;DHT22;16337;59.536;13.468;2023-10-09T08:56:21;7.10;99.90
29341;DHT22;16337;59.536;13.468;2023-10-09T08:58:55;7.40;99.90
29341;DHT22;16337;59.536;13.468;2023-10-09T09:01:22;7.70;99.90
29341;DHT22;16337;59.536;13.468;2023-10-09T09:03:51;8.00;99.90
29341;DHT22;16337;59.536;13.468;2023-10-09T09:06:18;8.20;99.90
29341;DHT22;16337;59.536;13.468;2023-10-09T09:08:45;8.40;99.90
29341;DHT22;16337;59.536;13.468;2023-10-09T09:11:16;8.50;99.90
29341;DHT22;16337;59.536;13.468;2023-10-09T09:13:48;8.60;99.90
29341;DHT22;16337;59.536;13.468;2023-10-09T09:16:34;8.90;99.90
29341;DHT22;16337;59.536;13.468;2023-10-09T09:19:07;9.10;99.90
29341;DHT22;16337;59.536;13.468;2023-10-09T09:21:57;9.30;99.90
29341;DHT22;16337;59.536;13.468;2023-10-09T09:24:37;9.60;99.90
29341;DHT22;16337;59.536;13.468;2023-10-09T09:27:04;9.80;99.90
29341;DHT22;16337;59.536;13.468;2023-10-09T09:29:39;9.90;99.90
29341;DHT22;16337;59.536;13.468;2023-10-09T09:32:10;10.20;99.90
29341;DHT22;16337;59.536;13.468;2023-10-09T09:34:50;10.50;99.90
29341;DHT22;16337;59.536;13.468;2023-10-09T09:37:31;10.50;99.90
29341;DHT22;16337;59.536;13.468;2023-10-09T09:40:05;10.70;99.90
29341;DHT22;16337;59.536;13.468;2023-10-09T09:42:49;10.90;99.90
29341;DHT22;16337;59.536;13.468;2023-10-09T09:45:16;11.00;99.90
29341;DHT22;16337;59.536;13.468;2023-10-09T09:47:45;11.30;99.90
29341;DHT22;16337;59.536;13.468;2023-10-09T09:50:17;11.50;99.90
29341;DHT22;16337;59.536;13.468;2023-10-09T09:52:55;11.60;99.90
29341;DHT22;16337;59.536;13.468;2023-10-09T09:55:25;11.80;99.90
29341;DHT22;16337;59.536;13.468;2023-10-09T09:57:57;12.20;99.90
29341;DHT22;16337;59.536;13.468;2023-10-09T10:00:28;12.30;99.90
29341;DHT22;16337;59.536;13.468;2023-10-09T10:03:10;11.90;99.90
29341;DHT22;16337;59.536;13.468;2023-10-09T10:05:41;11.50;99.90
29341;DHT22;16337;59.536;13.468;2023-10-09T10:08:08;11.30;99.90
29341;DHT22;16337;59.536;13.468;2023-10-09T10:10:39;11.10;99.90
29341;DHT22;16337;59.536;13.468;2023-10-09T10:13:13;11.10;99.90
29341;DHT22;16337;59.536;13.468;2023-10-09T10:16:12;11.20;99.90
29341;DHT22;16337;59.536;13.468;2023-10-09T10:18:59;11.70;99.90
29341;DHT22;16337;59.536;13.468;2023-10-09T10:21:28;11.90;99.90
29341;DHT22;16337;59.536;13.468;2023-10-09T10:23:57;11.60;99.90
29341;DHT22;16337;59.536;13.468;2023-10-09T10:26:36;11.30;99.90
29341;DHT22;16337;59.536;13.468;2023-10-09T10:29:16;11.20;99.90
29341;DHT22;16337;59.536;13.468;2023-10-09T10:32:03;11.20;99.90
29341;DHT22;16337;59.536;13.468;2023-10-09T10:34:54;11.20;99.90
29341;DHT22;16337;59.536;13.468;2023-10-09T10:37:38;11.30;99.90
29341;DHT22;16337;59.536;13.468;2023-10-09T10:40:25;11.50;99.90
29341;DHT22;16337;59.536;13.468;2023-10-09T10:43:07;11.40;99.90
29341;DHT22;16337;59.536;13.468;2023-10-09T10:48:40;10.90;99.90
29341;DHT22;16337;59.536;13.468;2023-10-09T10:51:12;11.00;99.90
29341;DHT22;16337;59.536;13.468;2023-10-09T10:53:53;11.00;99.90
29341;DHT22;16337;59.536;13.468;2023-10-09T10:56:25;11.20;99.90
29341;DHT22;16337;59.536;13.468;2023-10-09T10:59:01;11.10;99.90
29341;DHT22;16337;59.536;13.468;2023-10-09T11:01:33;11.00;99.90
29341;DHT22;16337;59.536;13.468;2023-10-09T11:04:17;10.90;99.90
29341;DHT22;16337;59.536;13.468;2023-10-09T11:06:59;10.70;99.90
29341;DHT22;16337;59.536;13.468;2023-10-09T11:10:04;10.70;99.90
29341;DHT22;16337;59.536;13.468;2023-10-09T11:12:31;10.80;99.90
29341;DHT22;16337;59.536;13.468;2023-10-09T11:15:15;10.90;99.90
29341;DHT22;16337;59.536;13.468;2023-10-09T11:18:05;11.10;99.90
29341;DHT22;16337;59.536;13.468;2023-10-09T11:20:43;10.90;99.90
29341;DHT22;16337;59.536;13.468;2023-10-09T11:23:22;10.90;99.90
29341;DHT22;16337;59.536;13.468;2023-10-09T11:26:05;11.00;99.90
29341;DHT22;16337;59.536;13.468;2023-10-09T11:29:11;11.20;99.90
29341;DHT22;16337;59.536;13.468;2023-10-09T11:32:04;11.50;99.90
29341;DHT22;16337;59.536;13.468;2023-10-09T11:34:32;11.90;99.90
29341;DHT22;16337;59.536;13.468;2023-10-09T11:37:13;11.80;99.90
29341;DHT22;16337;59.536;13.468;2023-10-09T11:39:42;11.60;99.90
29341;DHT22;16337;59.536;13.468;2023-10-09T11:42:20;11.40;99.90
29341;DHT22;16337;59.536;13.468;2023-10-09T11:45:06;11.50;99.90
29341;DHT22;16337;59.536;13.468;2023-10-09T11:47:54;11.40;99.90
29341;DHT22;16337;59.536;13.468;2023-10-09T11:50:45;11.30;99.90
29341;DHT22;16337;59.536;13.468;2023-10-09T11:53:17;11.40;99.90
29341;DHT22;16337;59.536;13.468;2023-10-09T11:55:50;11.50;99.90
29341;DHT22;16337;59.536;13.468;2023-10-09T11:58:19;11.60;99.90
29341;DHT22;16337;59.536;13.468;2023-10-09T12:00:55;11.80;99.90
29341;DHT22;16337;59.536;13.468;2023-10-09T12:03:31;12.00;99.90
29341;DHT22;16337;59.536;13.468;2023-10-09T12:06:01;12.20;99.90
29341;DHT22;16337;59.536;13.468;2023-10-09T12:08:34;12.20;99.90
29341;DHT22;16337;59.536;13.468;2023-10-09T12:11:02;12.20;99.90
29341;DHT22;16337;59.536;13.468;2023-10-09T12:13:33;12.30;99.90
29341;DHT22;16337;59.536;13.468;2023-10-09T12:15:59;12.50;99.90
29341;DHT22;16337;59.536;13.468;2023-10-09T12:18:25;12.70;99.90
29341;DHT22;16337;59.536;13.468;2023-10-09T12:20:51;13.00;99.90
29341;DHT22;16337;59.536;13.468;2023-10-09T12:23:19;13.00;99.90
29341;DHT22;16337;59.536;13.468;2023-10-09T12:25:45;12.60;99.90
29341;DHT22;16337;59.536;13.468;2023-10-09T12:28:11;12.20;99.90
29341;DHT22;16337;59.536;13.468;2023-10-09T12:30:41;11.90;99.90
29341;DHT22;16337;59.536;13.468;2023-10-09T12:33:07;11.70;99.90
29341;DHT22;16337;59.536;13.468;2023-10-09T12:35:37;11.70;99.90
29341;DHT22;16337;59.536;13.468;2023-10-09T12:38:04;11.70;99.90
29341;DHT22;16337;59.536;13.468;2023-10-09T12:40:34;11.60;99.90
29341;DHT22;16337;59.536;13.468;2023-10-09T12:43:00;11.60;99.90
29341;DHT22;16337;59.536;13.468;2023-10-09T12:45:26;11.70;99.90
29341;DHT22;16337;59.536;13.468;2023-10-09T12:47:55;11.60;99.90
29341;DHT22;16337;59.536;13.468;2023-10-09T12:50:27;11.60;99.90
29341;DHT22;16337;59.536;13.468;2023-10-09T12:53:00;11.50;99.90
29341;DHT22;16337;59.536;13.468;2023-10-09T12:55:38;11.60;99.90
29341;DHT22;16337;59.536;13.468;2023-10-09T12:58:08;11.50;99.90
29341;DHT22;16337;59.536;13.468;2023-10-09T13:00:37;11.40;99.90
29341;DHT22;16337;59.536;13.468;2023-10-09T13:03:07;11.40;99.90
29341;DHT22;16337;59.536;13.468;2023-10-09T13:05:51;11.70;99.90
29341;DHT22;16337;59.536;13.468;2023-10-09T13:08:28;11.70;99.90
29341;DHT22;16337;59.536;13.468;2023-10-09T13:11:04;11.50;99.90
29341;DHT22;16337;59.536;13.468;2023-10-09T13:13:39;11.50;99.90
29341;DHT22;16337;59.536;13.468;2023-10-09T13:18:42;11.30;99.90
29341;DHT22;16337;59.536;13.468;2023-10-09T13:21:19;11.20;99.90
29341;DHT22;16337;59.536;13.468;2023-10-09T13:23:45;11.20;99.90
29341;DHT22;16337;59.536;13.468;2023-10-09T13:26:19;11.30;99.90
29341;DHT22;16337;59.536;13.468;2023-10-09T13:28:48;11.20;99.90
29341;DHT22;16337;59.536;13.468;2023-10-09T13:31:15;11.10;99.90
29341;DHT22;16337;59.536;13.468;2023-10-09T13:33:41;10.90;99.90
29341;DHT22;16337;59.536;13.468;2023-10-09T13:36:09;10.80;99.90
29341;DHT22;16337;59.536;13.468;2023-10-09T13:38:56;10.60;99.90
29341;DHT22;16337;59.536;13.468;2023-10-09T13:41:23;10.40;99.90
29341;DHT22;16337;59.536;13.468;2023-10-09T13:43:55;10.30;99.90
29341;DHT22;16337;59.536;13.468;2023-10-09T13:46:23;10.00;99.90
29341;DHT22;16337;59.536;13.468;2023-10-09T13:48:49;10.00;99.90
29341;DHT22;16337;59.536;13.468;2023-10-09T13:51:18;9.80;99.90
29341;DHT22;16337;59.536;13.468;2023-10-09T13:53:47;9.70;99.90
29341;DHT22;16337;59.536;13.468;2023-10-09T13:56:13;9.70;99.90
29341;DHT22;16337;59.536;13.468;2023-10-09T13:58:41;9.70;99.90
29341;DHT22;16337;59.536;13.468;2023-10-09T14:01:09;9.70;99.90
29341;DHT22;16337;59.536;13.468;2023-10-09T14:03:35;9.70;99.90
29341;DHT22;16337;59.536;13.468;2023-10-09T14:06:04;9.70;99.90
29341;DHT22;16337;59.536;13.468;2023-10-09T14:08:38;9.70;99.90
29341;DHT22;16337;59.536;13.468;2023-10-09T14:11:09;9.60;99.90
29341;DHT22;16337;59.536;13.468;2023-10-09T14:13:41;9.60;99.90
29341;DHT22;16337;59.536;13.468;2023-10-09T14:16:08;9.60;99.90
29341;DHT22;16337;59.536;13.468;2023-10-09T14:18:56;9.60;99.90
29341;DHT22;16337;59.536;13.468;2023-10-09T14:21:29;9.70;99.90
29341;DHT22;16337;59.536;13.468;2023-10-09T14:23:58;9.70;99.90
29341;DHT22;16337;59.536;13.468;2023-10-09T14:26:25;9.70;99.90
29341;DHT22;16337;59.536;13.468;2023-10-09T14:28:52;9.50;99.90
29341;DHT22;16337;59.536;13.468;2023-10-09T14:31:19;9.40;99.90
29341;DHT22;16337;59.536;13.468;2023-10-09T14:33:52;9.30;99.90
29341;DHT22;16337;59.536;13.468;2023-10-09T14:36:19;9.10;99.90
29341;DHT22;16337;59.536;13.468;2023-10-09T14:38:50;9.00;99.90
29341;DHT22;16337;59.536;13.468;2023-10-09T14:41:21;8.80;99.90
29341;DHT22;16337;59.536;13.468;2023-10-09T14:43:51;8.70;99.90
29341;DHT22;16337;59.536;13.468;2023-10-09T14:46:17;8.50;99.90
29341;DHT22;16337;59.536;13.468;2023-10-09T14:48:49;8.40;99.90
29341;DHT22;16337;59.536;13.468;2023-10-09T14:51:14;8.30;99.90
29341;DHT22;16337;59.536;13.468;2023-10-09T14:53:40;8.10;99.90
29341;DHT22;16337;59.536;13.468;2023-10-09T14:56:06;7.90;99.90
29341;DHT22;16337;59.536;13.468;2023-10-09T14:58:40;7.80;99.90
29341;DHT22;16337;59.536;13.468;2023-10-09T15:01:10;7.60;99.90
29341;DHT22;16337;59.536;13.468;2023-10-09T15:03:36;7.40;99.90
29341;DHT22;16337;59.536;13.468;2023-10-09T15:06:05;7.20;99.90
29341;DHT22;16337;59.536;13.468;2023-10-09T15:08:36;7.10;99.90
29341;DHT22;16337;59.536;13.468;2023-10-09T15:11:03;7.00;99.90
29341;DHT22;16337;59.536;13.468;2023-10-09T15:13:28;6.90;99.90
29341;DHT22;16337;59.536;13.468;2023-10-09T15:15:56;6.80;99.90
29341;DHT22;16337;59.536;13.468;2023-10-09T15:18:22;6.60;99.90
29341;DHT22;16337;59.536;13.468;2023-10-09T15:20:48;6.40;99.90
29341;DHT22;16337;59.536;13.468;2023-10-09T15:23:14;6.30;99.90
29341;DHT22;16337;59.536;13.468;2023-10-09T15:25:40;6.20;99.90
29341;DHT22;16337;59.536;13.468;2023-10-09T15:28:10;6.00;99.90
29341;DHT22;16337;59.536;13.468;2023-10-09T15:30:36;5.90;99.90
29341;DHT22;16337;59.536;13.468;2023-10-09T15:33:05;5.70;99.90
29341;DHT22;16337;59.536;13.468;2023-10-09T15:35:31;5.50;99.90
29341;DHT22;16337;59.536;13.468;2023-10-09T15:38:01;5.40;99.90
29341;DHT22;16337;59.536;13.468;2023-10-09T15:40:29;5.30;99.90
29341;DHT22;16337;59.536;13.468;2023-10-09T15:42:59;5.20;99.90
29341;DHT22;16337;59.536;13.468;2023-10-09T15:45:25;5.00;99.90
29341;DHT22;16337;59.536;13.468;2023-10-09T15:47:54;4.90;99.90
29341;DHT22;16337;59.536;13.468;2023-10-09T15:50:20;4.90;99.90
29341;DHT22;16337;59.536;13.468;2023-10-09T15:52:52;4.90;99.90
29341;DHT22;16337;59.536;13.468;2023-10-09T15:55:22;4.80;99.90
29341;DHT22;16337;59.536;13.468;2023-10-09T15:57:50;4.70;99.90
29341;DHT22;16337;59.536;13.468;2023-10-09T16:00:24;4.70;99.90
29341;DHT22;16337;59.536;13.468;2023-10-09T16:02:56;4.70;99.90
29341;DHT22;16337;59.536;13.468;2023-10-09T16:05:22;4.60;99.90
29341;DHT22;16337;59.536;13.468;2023-10-09T16:07:55;4.50;99.90
29341;DHT22;16337;59.536;13.468;2023-10-09T16:10:21;4.50;99.90